createdAt,value
2022-08-04T00:02:51.809Z,20.90
2022-08-04T00:08:03.166Z,20.80
2022-08-04T00:13:08.504Z,20.70
2022-08-04T00:18:16.603Z,20.60
2022-08-04T00:23:19.436Z,20.50
2022-08-04T00:28:22.186Z,20.50
2022-08-04T00:33:26.278Z,20.40
2022-08-04T00:38:31.593Z,20.30
2022-08-04T00:43:44.114Z,20.30
2022-08-04T00:48:58.678Z,20.20
2022-08-04T00:54:35.334Z,20.20
2022-08-04T01:00:02.153Z,20.20
2022-08-04T01:05:09.209Z,20.20
2022-08-04T01:10:31.973Z,20.00
2022-08-04T01:16:00.232Z,19.90
2022-08-04T01:21:15.859Z,19.90
2022-08-04T01:26:57.915Z,19.90
2022-08-04T01:32:31.596Z,19.90
2022-08-04T01:37:49.854Z,19.80
2022-08-04T01:42:53.938Z,19.80
2022-08-04T01:48:03.049Z,19.70
2022-08-04T01:53:05.647Z,19.70
2022-08-04T01:58:08.841Z,19.60
2022-08-04T02:03:14.290Z,19.60
2022-08-04T02:08:50.105Z,19.50
2022-08-04T02:14:40.714Z,19.40
2022-08-04T02:19:55.924Z,19.30
2022-08-04T02:25:04.943Z,19.30
2022-08-04T02:30:07.778Z,19.40
2022-08-04T02:35:19.476Z,19.30
2022-08-04T02:40:24.803Z,19.20
2022-08-04T02:45:29.192Z,19.20
2022-08-04T02:50:35.815Z,19.10
2022-08-04T02:55:39.575Z,19.10
2022-08-04T03:00:59.327Z,19.10
2022-08-04T03:06:13.851Z,19.00
2022-08-04T03:11:53.994Z,19.10
2022-08-04T03:17:24.191Z,18.90
2022-08-04T03:22:32.698Z,18.90
2022-08-04T03:27:56.642Z,18.90
2022-08-04T03:33:17.094Z,18.80
2022-08-04T03:38:37.651Z,18.90
2022-08-04T03:44:09.802Z,19.00
2022-08-04T03:49:43.359Z,18.90
2022-08-04T03:55:00.927Z,19.00
2022-08-04T04:00:20.316Z,19.00
2022-08-04T04:05:58.911Z,19.00
2022-08-04T04:11:35.177Z,19.10
2022-08-04T04:17:09.991Z,19.10
2022-08-04T04:22:54.618Z,19.30
2022-08-04T04:28:44.342Z,19.60
2022-08-04T04:33:52.861Z,20.50
2022-08-04T04:39:06.467Z,21.20
2022-08-04T04:44:14.770Z,21.50
2022-08-04T04:49:40.905Z,22.10
2022-08-04T04:55:02.700Z,22.30
2022-08-04T05:00:11.130Z,22.60
2022-08-04T05:05:19.574Z,22.80
2022-08-04T05:10:37.094Z,23.00
2022-08-04T05:15:45.179Z,23.10
2022-08-04T05:20:54.637Z,23.40
2022-08-04T05:26:04.517Z,23.90
2022-08-04T05:31:17.098Z,24.20
2022-08-04T05:36:39.922Z,24.50
2022-08-04T05:41:48.047Z,24.50
2022-08-04T05:46:59.309Z,24.70
2022-08-04T05:52:04.137Z,25.00
2022-08-04T05:57:07.956Z,25.20
2022-08-04T06:02:11.124Z,25.80
2022-08-04T06:07:16.894Z,26.10
2022-08-04T06:12:40.410Z,26.50
2022-08-04T06:19:57.203Z,26.70
2022-08-04T06:23:15.450Z,27.30
2022-08-04T06:28:19.014Z,27.50
2022-08-04T06:33:54.826Z,27.80
2022-08-04T06:39:00.075Z,27.80
2022-08-04T06:44:09.298Z,28.10
2022-08-04T06:49:13.673Z,28.60
2022-08-04T06:54:16.306Z,28.90
2022-08-04T06:59:20.527Z,29.20
2022-08-04T07:04:23.274Z,29.40
2022-08-04T07:09:26.039Z,29.60
2022-08-04T07:14:29.429Z,29.80
2022-08-04T07:19:38.418Z,29.70
2022-08-04T07:24:42.542Z,29.80
2022-08-04T07:29:45.859Z,29.90
2022-08-04T07:34:52.675Z,30.10
2022-08-04T07:39:55.267Z,30.30
2022-08-04T07:44:58.929Z,30.90
2022-08-04T07:50:01.861Z,30.70
2022-08-04T07:55:05.344Z,31.10
2022-08-04T08:00:09.038Z,31.20
2022-08-04T08:05:19.651Z,31.70
2022-08-04T08:10:23.422Z,31.70
2022-08-04T08:15:26.601Z,31.90
2022-08-04T08:20:31.233Z,32.00
2022-08-04T08:25:34.312Z,31.90
2022-08-04T08:30:36.870Z,31.90
2022-08-04T08:35:54.049Z,31.80
2022-08-04T08:41:17.280Z,32.10
2022-08-04T08:46:49.317Z,32.30
2022-08-04T08:53:00.810Z,32.30
2022-08-04T08:58:13.526Z,32.30
2022-08-04T09:03:46.275Z,32.50
2022-08-04T09:09:12.816Z,32.50
2022-08-04T09:14:25.472Z,32.50
2022-08-04T09:19:45.899Z,32.30
2022-08-04T09:24:53.513Z,32.30
2022-08-04T09:30:04.674Z,32.60
2022-08-04T09:35:33.550Z,32.70
2022-08-04T09:41:48.129Z,32.60
2022-08-04T09:47:25.703Z,32.70
2022-08-04T09:52:48.157Z,33.00
2022-08-04T09:58:02.451Z,32.90
2022-08-04T10:03:05.192Z,32.90
2022-08-04T10:08:27.387Z,33.10
2022-08-04T10:13:39.879Z,33.20
2022-08-04T10:18:58.838Z,33.10
2022-08-04T10:24:33.367Z,33.20
2022-08-04T10:29:45.430Z,33.10
2022-08-04T10:35:08.695Z,33.10
2022-08-04T10:40:46.860Z,33.00
2022-08-04T10:46:03.903Z,33.00
2022-08-04T10:51:21.293Z,33.40
2022-08-04T10:56:41.894Z,33.40
2022-08-04T11:02:01.649Z,33.60
2022-08-04T11:07:05.469Z,33.10
2022-08-04T11:12:15.778Z,33.40
2022-08-04T11:17:33.721Z,33.70
2022-08-04T11:22:44.571Z,33.60
2022-08-04T11:28:09.462Z,33.60
2022-08-04T11:33:24.172Z,33.20
2022-08-04T11:39:11.476Z,33.20
2022-08-04T11:44:24.024Z,33.00
2022-08-04T11:49:56.570Z,32.90
2022-08-04T11:54:58.661Z,33.20
2022-08-04T12:00:07.520Z,33.20
2022-08-04T12:05:32.396Z,33.40
2022-08-04T12:10:43.134Z,33.50
2022-08-04T12:16:13.651Z,33.20
2022-08-04T12:21:39.183Z,33.40
2022-08-04T12:26:54.346Z,33.50
2022-08-04T12:32:33.130Z,33.60
2022-08-04T12:38:05.083Z,33.50
2022-08-04T12:43:22.680Z,33.30
2022-08-04T12:48:26.688Z,33.60
2022-08-04T12:53:51.251Z,33.70
2022-08-04T12:59:01.062Z,33.50
2022-08-04T13:04:19.576Z,33.20
2022-08-04T13:09:26.482Z,33.30
2022-08-04T13:14:35.153Z,33.60
2022-08-04T13:19:41.347Z,33.60
2022-08-04T13:24:56.688Z,33.20
2022-08-04T13:30:08.042Z,33.40
2022-08-04T13:35:13.331Z,33.40
2022-08-04T13:40:16.524Z,33.40
2022-08-04T13:45:24.566Z,33.40
2022-08-04T13:50:38.697Z,33.40
2022-08-04T13:55:41.370Z,33.30
2022-08-04T14:00:53.736Z,33.10
2022-08-04T14:06:31.825Z,32.90
2022-08-04T14:12:09.203Z,32.90
2022-08-04T14:17:20.661Z,32.60
2022-08-04T14:22:26.284Z,32.60
2022-08-04T14:28:15.060Z,32.70
2022-08-04T14:34:01.575Z,32.80
2022-08-04T14:39:00.467Z,32.90
2022-08-04T14:44:04.093Z,32.70
2022-08-04T14:49:12.136Z,32.40
2022-08-04T14:54:18.593Z,32.20
2022-08-04T14:59:22.198Z,32.10
2022-08-04T15:04:25.934Z,32.40
2022-08-04T15:09:28.794Z,32.50
2022-08-04T15:14:36.894Z,32.00
2022-08-04T15:19:40.514Z,32.20
2022-08-04T15:24:58.579Z,32.40
2022-08-04T15:30:04.904Z,32.40
2022-08-04T15:35:13.510Z,32.20
2022-08-04T15:40:33.467Z,31.80
2022-08-04T15:46:37.291Z,31.60
2022-08-04T15:51:33.000Z,31.10
2022-08-04T15:56:35.654Z,31.20
2022-08-04T16:01:38.205Z,31.30
2022-08-04T16:06:41.510Z,31.00
2022-08-04T16:11:44.018Z,30.90
2022-08-04T16:16:51.689Z,30.90
2022-08-04T16:21:56.208Z,30.80
2022-08-04T16:27:00.904Z,30.80
2022-08-04T16:32:35.842Z,30.90
2022-08-04T16:37:43.037Z,30.70
2022-08-04T16:42:46.091Z,30.70
2022-08-04T16:47:48.466Z,30.60
2022-08-04T16:52:53.799Z,30.50
2022-08-04T16:57:59.194Z,30.40
2022-08-04T17:03:06.595Z,30.30
2022-08-04T17:14:04.011Z,30.10
2022-08-04T17:18:58.101Z,30.00
2022-08-04T17:24:15.707Z,29.80
2022-08-04T17:29:20.256Z,29.70
2022-08-04T17:34:26.351Z,29.60
2022-08-04T17:39:55.039Z,29.40
2022-08-04T17:50:53.308Z,29.20
2022-08-04T17:55:57.023Z,29.10
2022-08-04T18:01:23.774Z,28.90
2022-08-04T18:06:26.518Z,28.80
2022-08-04T18:11:41.986Z,28.70
2022-08-04T18:16:45.449Z,28.60
2022-08-04T18:21:59.710Z,28.40
2022-08-04T18:27:06.499Z,28.20
2022-08-04T18:32:10.135Z,28.10
2022-08-04T18:38:03.140Z,27.90
2022-08-04T18:42:37.466Z,27.80
2022-08-04T18:47:58.698Z,27.60
2022-08-04T18:53:01.794Z,27.40
2022-08-04T18:58:11.867Z,27.10
2022-08-04T19:03:22.921Z,26.90
2022-08-04T19:08:33.207Z,26.80
2022-08-04T19:13:37.777Z,26.70
2022-08-04T19:18:40.277Z,26.50
2022-08-04T19:24:28.871Z,26.30
2022-08-04T19:29:05.809Z,26.20
2022-08-04T19:34:11.487Z,26.10
2022-08-04T19:39:14.318Z,25.90
2022-08-04T19:44:19.095Z,25.80
2022-08-04T19:54:49.385Z,25.40
2022-08-04T19:59:51.905Z,25.30
2022-08-04T20:04:57.570Z,25.10
2022-08-04T20:10:00.337Z,25.10
2022-08-04T20:15:07.886Z,24.90
2022-08-04T20:20:15.053Z,24.80
2022-08-04T20:25:35.635Z,24.70
2022-08-04T20:30:39.579Z,24.60
2022-08-04T20:36:00.808Z,24.40
2022-08-04T20:41:05.823Z,24.30
2022-08-04T20:46:18.138Z,24.20
2022-08-04T20:51:31.805Z,24.10
2022-08-04T20:56:36.745Z,24.10
2022-08-04T21:01:39.230Z,24.10
2022-08-04T21:06:41.713Z,24.00
2022-08-04T21:11:52.704Z,24.00
2022-08-04T21:16:59.752Z,23.90
2022-08-04T21:22:02.353Z,23.90
2022-08-04T21:27:09.834Z,23.90
2022-08-04T21:32:12.593Z,23.90
2022-08-04T21:37:16.557Z,23.80
2022-08-04T21:42:27.904Z,23.80
2022-08-04T21:47:46.240Z,23.70
2022-08-04T21:52:51.656Z,23.70
2022-08-04T21:57:54.406Z,23.70
2022-08-04T22:03:03.465Z,23.60
2022-08-04T22:08:05.956Z,23.50
2022-08-04T22:13:08.395Z,23.50
2022-08-04T22:18:10.810Z,23.50
2022-08-04T22:23:17.043Z,23.50
2022-08-04T22:28:21.829Z,23.50
2022-08-04T22:33:54.724Z,23.40
2022-08-04T22:38:55.979Z,23.50
2022-08-04T22:44:06.683Z,23.40
2022-08-04T22:49:09.493Z,23.20
2022-08-04T22:54:12.686Z,23.20
2022-08-04T22:59:16.487Z,23.20
2022-08-04T23:04:18.957Z,23.10
2022-08-04T23:09:21.515Z,23.00
2022-08-04T23:14:25.058Z,22.90
2022-08-04T23:19:29.892Z,22.80
2022-08-04T23:24:32.811Z,22.70
2022-08-04T23:29:53.258Z,22.60
2022-08-04T23:34:57.439Z,22.50
2022-08-04T23:40:14.392Z,22.40
2022-08-04T23:46:03.967Z,22.40
2022-08-04T23:50:45.014Z,22.40
2022-08-04T23:55:47.760Z,22.40
